Northwest, Indiana
Current Conditions -  °F | °C
As of 9:55 PM on Thursday 27 Nov 2014 (Local Time) from KDCY Reporting Station
Overcast Overcast  
Wind Chill: 18°   Ceiling: 3100
Heat Index: 27°   Visibility: 10mi
Dew Point: 21°   Wind: 10mph
Humidity: 79%   Direction: 320°NW
Pressure: 30.45"   Gusts: NA
Location:  38.6165°N, 86.6265°W
Report Text: KDCY 280255Z AUTO 32009KT 10SM SCT024 OVC031 M03/M06 A3045 RMK AO2 T10271059
Loading
Personal Weather Stations






























Interactive Weather Map New forecast layout! Learn more

10-Day Weather Forecast

Advertisements
Track Severe Weather on mobile